Time,TemperatureF,DewpointF,PressureIn,WindDirection,WindDirectionDegrees,WindSpeedMPH,WindSpeedGustMPH,Humidity,HourlyPrecipIn,Conditions,Clouds,dailyrainin,SoftwareType,DateUTC
2013-07-01 10:55:00,75.0,72.8,29.89,WSW,245,0.0,0.0,93,0.35,,,0.00,VWS V14.00,2013-07-01 14:55:00,
2013-07-01 11:00:00,75.0,71.9,29.89,West,266,0.0,4.0,90,0.00,,,0.00,VWS V14.00,2013-07-01 15:00:00,
2013-07-01 11:05:00,75.0,71.4,29.89,West,266,0.0,0.0,88,0.00,,,0.00,VWS V14.00,2013-07-01 15:05:00,
2013-07-01 11:15:00,75.0,70.9,29.89,West,266,0.0,0.0,87,0.00,,,0.00,VWS V14.00,2013-07-01 15:15:00,
2013-07-01 11:20:00,75.4,71.2,29.89,West,266,0.0,0.0,87,0.00,,,0.00,VWS V14.00,2013-07-01 15:20:00,
2013-07-01 11:30:00,75.9,71.8,29.89,West,266,0.0,2.7,87,0.00,,,0.00,VWS V14.00,2013-07-01 15:30:00,
2013-07-01 11:36:00,76.1,70.4,29.89,West,266,0.0,0.0,83,0.00,,,0.00,VWS V14.00,2013-07-01 15:36:00,
2013-07-01 11:46:00,76.1,69.9,29.89,West,266,0.0,0.0,81,0.00,,,0.00,VWS V14.00,2013-07-01 15:46:00,
2013-07-01 11:56:00,76.3,69.0,29.89,West,266,0.0,3.6,78,0.00,,,0.00,VWS V14.00,2013-07-01 15:56:00,
2013-07-01 12:01:00,76.5,68.1,29.89,West,266,0.0,3.1,75,0.00,,,0.00,VWS V14.00,2013-07-01 16:01:00,
2013-07-01 12:06:00,76.6,67.1,29.89,SW,219,0.0,2.7,72,0.00,,,0.00,VWS V14.00,2013-07-01 16:06:00,
2013-07-01 12:11:00,77.0,67.5,29.89,SW,214,0.0,4.0,72,0.00,,,0.00,VWS V14.00,2013-07-01 16:11:00,
2013-07-01 12:21:00,77.4,68.4,29.89,ESE,110,0.0,0.0,74,0.00,,,0.00,VWS V14.00,2013-07-01 16:21:00,
2013-07-01 12:31:00,76.8,67.3,29.89,ESE,111,0.0,0.0,72,0.00,,,0.00,VWS V14.00,2013-07-01 16:31:00,
2013-07-01 12:36:00,76.3,66.8,29.89,South,180,0.0,3.1,72,0.00,,,0.00,VWS V14.00,2013-07-01 16:36:00,
2013-07-01 12:46:00,75.4,68.2,29.89,South,184,0.0,0.0,78,0.00,,,0.00,VWS V14.00,2013-07-01 16:46:00,
2013-07-01 12:56:00,74.1,72.4,29.89,South,184,0.0,0.0,94,0.00,,,0.00,VWS V14.00,2013-07-01 16:56:00,
2013-07-01 13:06:00,74.5,74.5,29.89,South,184,0.0,0.0,100,0.00,,,0.00,VWS V14.00,2013-07-01 17:06:00,
2013-07-01 13:11:00,74.8,74.8,29.89,South,184,0.0,0.0,100,0.00,,,0.00,VWS V14.00,2013-07-01 17:11:00,
2013-07-01 13:21:00,75.0,75.0,29.89,South,184,0.0,0.0,100,0.00,,,0.00,VWS V14.00,2013-07-01 17:21:00,
2013-07-01 13:26:00,74.8,74.8,29.89,South,184,0.0,0.0,100,0.00,,,0.00,VWS V14.00,2013-07-01 17:26:00,
2013-07-01 13:31:00,74.8,74.8,29.89,WNW,285,0.0,2.7,100,0.00,,,0.00,VWS V14.00,2013-07-01 17:31:00,
2013-07-01 13:36:00,74.7,74.7,29.89,WNW,285,0.0,0.0,100,0.00,,,0.00,VWS V14.00,2013-07-01 17:36:00,
2013-07-01 13:46:00,74.7,72.0,29.86,SW,233,2.7,4.0,91,0.00,,,0.00,VWS V14.00,2013-07-01 17:46:00,
2013-07-01 13:56:00,75.6,73.3,29.86,WNW,302,0.0,3.6,93,0.00,,,0.00,VWS V14.00,2013-07-01 17:56:00,
2013-07-01 14:01:00,76.6,71.5,29.86,WSW,251,2.7,4.0,84,0.00,,,0.00,VWS V14.00,2013-07-01 18:01:00,
2013-07-01 14:06:00,77.7,69.9,29.86,WSW,253,3.1,4.5,77,0.00,,,0.00,VWS V14.00,2013-07-01 18:06:00,
2013-07-01 14:16:00,79.5,68.7,29.86,SSE,164,2.7,6.3,70,0.00,,,0.00,VWS V14.00,2013-07-01 18:16:00,
2013-07-01 14:21:00,80.1,65.4,29.86,SW,236,2.2,10.5,61,0.00,,,0.00,VWS V14.00,2013-07-01 18:21:00,
2013-07-01 14:31:00,80.8,63.9,29.86,West,272,4.0,6.3,57,0.00,,,0.00,VWS V14.00,2013-07-01 18:31:00,
2013-07-01 14:36:00,81.0,62.6,29.86,East,100,3.1,5.8,54,0.00,,,0.00,VWS V14.00,2013-07-01 18:36:00,
2013-07-01 14:46:00,80.2,64.8,29.86,NE,54,0.0,5.8,59,0.00,,,0.00,VWS V14.00,2013-07-01 18:46:00,
2013-07-01 14:56:00,77.7,63.2,29.86,WNW,288,3.6,8.3,61,0.00,,,0.00,VWS V14.00,2013-07-01 18:56:00,
2013-07-01 15:06:00,76.6,63.5,29.86,West,262,2.2,3.6,64,0.00,,,0.00,VWS V14.00,2013-07-01 19:06:00,
2013-07-01 15:16:00,77.4,64.8,29.86,WNW,302,5.4,6.3,65,0.00,,,0.00,VWS V14.00,2013-07-01 19:16:00,
2013-07-01 15:21:00,78.3,64.3,29.86,NW,312,2.2,6.3,62,0.00,,,0.00,VWS V14.00,2013-07-01 19:21:00,
2013-07-01 15:31:00,79.2,63.8,29.86,North,10,2.2,6.3,59,0.00,,,0.00,VWS V14.00,2013-07-01 19:31:00,
2013-07-01 15:36:00,79.0,63.0,29.86,NW,325,0.0,6.3,58,0.00,,,0.00,VWS V14.00,2013-07-01 19:36:00,
2013-07-01 15:41:00,78.4,63.2,29.86,WSW,246,0.0,5.4,59,0.00,,,0.00,VWS V14.00,2013-07-01 19:41:00,
2013-07-01 15:51:00,77.7,63.8,29.89,West,280,0.0,4.9,62,0.00,,,0.00,VWS V14.00,2013-07-01 19:51:00,
2013-07-01 16:01:00,76.6,64.1,29.89,West,280,0.0,2.7,65,0.00,,,0.00,VWS V14.00,2013-07-01 20:01:00,
2013-07-01 16:11:00,76.5,65.2,29.89,NW,304,0.0,0.0,68,0.00,,,0.00,VWS V14.00,2013-07-01 20:11:00,
2013-07-01 16:16:00,76.3,66.2,29.89,WNW,301,2.2,3.6,71,0.00,,,0.00,VWS V14.00,2013-07-01 20:16:00,
2013-07-01 16:26:00,75.4,68.7,29.89,WNW,296,0.0,0.0,80,0.00,,,0.00,VWS V14.00,2013-07-01 20:26:00,
2013-07-01 16:36:00,75.0,70.4,29.89,WSW,254,0.0,4.0,86,0.00,,,0.00,VWS V14.00,2013-07-01 20:36:00,
2013-07-01 16:46:00,76.1,69.4,29.89,WNW,290,0.0,3.1,80,0.00,,,0.00,VWS V14.00,2013-07-01 20:46:00,
2013-07-01 16:51:00,76.5,69.2,29.89,WNW,290,0.0,4.0,78,0.00,,,0.00,VWS V14.00,2013-07-01 20:51:00,
2013-07-01 17:01:00,76.1,69.4,29.89,WNW,290,0.0,0.0,80,0.00,,,0.00,VWS V14.00,2013-07-01 21:01:00,
2013-07-01 17:11:00,75.7,69.6,29.89,WNW,290,0.0,0.0,81,0.00,,,0.00,VWS V14.00,2013-07-01 21:11:00,
2013-07-01 17:16:00,75.9,70.3,29.89,WNW,290,0.0,0.0,83,0.00,,,0.00,VWS V14.00,2013-07-01 21:16:00,
2013-07-01 17:21:00,75.7,71.1,29.89,WNW,290,0.0,0.0,86,0.00,,,0.00,VWS V14.00,2013-07-01 21:21:00,
2013-07-01 17:31:00,76.1,72.4,29.89,WNW,290,0.0,0.0,88,0.00,,,0.00,VWS V14.00,2013-07-01 21:31:00,
2013-07-01 17:36:00,76.5,72.8,29.89,WNW,290,0.0,0.0,88,0.00,,,0.00,VWS V14.00,2013-07-01 21:36:00,
2013-07-01 17:46:00,76.3,70.1,29.89,WNW,290,0.0,0.0,81,0.00,,,0.00,VWS V14.00,2013-07-01 21:46:00,
2013-07-01 17:56:00,76.1,68.3,29.89,WNW,290,0.0,0.0,77,0.00,,,0.00,VWS V14.00,2013-07-01 21:56:00,
2013-07-01 18:01:00,76.6,68.8,29.89,WNW,290,0.0,0.0,77,0.00,,,0.00,VWS V14.00,2013-07-01 22:01:00,
2013-07-01 18:11:00,77.0,69.2,29.89,WNW,290,0.0,0.0,77,0.00,,,0.00,VWS V14.00,2013-07-01 22:11:00,
2013-07-01 18:21:00,76.6,67.7,29.89,WNW,290,0.0,0.0,74,0.00,,,0.00,VWS V14.00,2013-07-01 22:21:00,
2013-07-01 18:26:00,76.5,68.1,29.89,WNW,290,0.0,0.0,75,0.00,,,0.00,VWS V14.00,2013-07-01 22:26:00,
2013-07-01 18:36:00,76.6,68.8,29.89,WNW,290,0.0,0.0,77,0.00,,,0.00,VWS V14.00,2013-07-01 22:36:00,
2013-07-01 18:41:00,77.0,66.9,29.89,WNW,290,0.0,0.0,71,0.00,,,0.00,VWS V14.00,2013-07-01 22:41:00,
2013-07-01 18:51:00,77.2,67.7,29.89,WNW,290,0.0,0.0,72,0.00,,,0.00,VWS V14.00,2013-07-01 22:51:00,
2013-07-01 18:56:00,77.2,68.2,29.89,WNW,290,0.0,0.0,74,0.00,,,0.00,VWS V14.00,2013-07-01 22:56:00,
2013-07-01 19:01:00,77.4,68.4,29.89,WNW,290,0.0,0.0,74,0.00,,,0.00,VWS V14.00,2013-07-01 23:01:00,
2013-07-01 19:06:00,77.4,68.4,29.89,WNW,290,0.0,0.0,74,0.00,,,0.00,VWS V14.00,2013-07-01 23:06:00,
2013-07-01 19:16:00,77.4,68.4,29.89,WNW,290,0.0,0.0,74,0.00,,,0.00,VWS V14.00,2013-07-01 23:16:00,
2013-07-01 19:26:00,76.8,69.0,29.89,WNW,290,0.0,0.0,77,0.00,,,0.00,VWS V14.00,2013-07-01 23:26:00,
2013-07-01 19:36:00,76.5,69.2,29.89,WNW,290,0.0,0.0,78,0.00,,,0.00,VWS V14.00,2013-07-01 23:36:00,
2013-07-01 19:46:00,76.3,69.0,29.92,WNW,290,0.0,0.0,78,0.00,,,0.00,VWS V14.00,2013-07-01 23:46:00,
2013-07-01 19:51:00,76.1,68.9,29.92,WNW,290,0.0,0.0,78,0.00,,,0.00,VWS V14.00,2013-07-01 23:51:00,
2013-07-01 20:01:00,75.7,69.6,29.92,WNW,290,0.0,0.0,81,0.00,,,0.00,VWS V14.00,2013-07-02 00:01:00,
2013-07-01 20:06:00,75.6,69.9,29.92,WNW,290,0.0,0.0,83,0.00,,,0.00,VWS V14.00,2013-07-02 00:06:00,
2013-07-01 20:11:00,75.4,70.2,29.92,WNW,290,0.0,0.0,84,0.00,,,0.00,VWS V14.00,2013-07-02 00:11:00,
2013-07-01 20:21:00,75.0,70.9,29.92,WNW,290,0.0,0.0,87,0.00,,,0.00,VWS V14.00,2013-07-02 00:21:00,
2013-07-01 20:31:00,75.0,70.9,29.92,WNW,290,0.0,0.0,87,0.00,,,0.00,VWS V14.00,2013-07-02 00:31:00,
2013-07-01 20:36:00,74.8,71.2,29.92,WNW,290,0.0,0.0,88,0.00,,,0.00,VWS V14.00,2013-07-02 00:36:00,
2013-07-01 20:46:00,74.7,71.0,29.92,WNW,290,0.0,0.0,88,0.00,,,0.00,VWS V14.00,2013-07-02 00:46:00,
2013-07-01 20:56:00,74.7,71.0,29.92,WNW,290,0.0,0.0,88,0.00,,,0.00,VWS V14.00,2013-07-02 00:56:00,
2013-07-01 21:01:00,74.5,70.8,29.89,WNW,290,0.0,0.0,88,0.00,,,0.00,VWS V14.00,2013-07-02 01:01:00,
2013-07-01 21:06:00,74.5,70.8,29.89,WNW,290,0.0,0.0,88,0.04,,,0.04,VWS V14.00,2013-07-02 01:06:00,
2013-07-01 21:11:00,74.5,70.8,29.89,WNW,290,0.0,0.0,88,0.04,,,0.04,VWS V14.00,2013-07-02 01:11:00,
2013-07-01 21:21:00,74.3,71.2,29.92,WNW,290,0.0,0.0,90,0.04,,,0.04,VWS V14.00,2013-07-02 01:21:00,
2013-07-01 21:26:00,74.1,71.0,29.92,WNW,290,0.0,0.0,90,0.04,,,0.04,VWS V14.00,2013-07-02 01:26:00,
2013-07-01 21:36:00,74.1,71.4,29.92,WNW,290,0.0,0.0,91,0.04,,,0.04,VWS V14.00,2013-07-02 01:36:00,
2013-07-01 21:46:00,74.1,71.4,29.92,WNW,290,0.0,0.0,91,0.04,,,0.04,VWS V14.00,2013-07-02 01:46:00,
2013-07-01 21:51:00,73.9,71.3,29.92,WNW,290,0.0,0.0,91,0.04,,,0.04,VWS V14.00,2013-07-02 01:51:00,
2013-07-01 22:01:00,73.9,71.3,29.92,WNW,290,0.0,0.0,91,0.04,,,0.04,VWS V14.00,2013-07-02 02:01:00,
2013-07-01 22:06:00,73.9,71.7,29.92,WNW,290,0.0,0.0,93,0.04,,,0.04,VWS V14.00,2013-07-02 02:06:00,
2013-07-01 22:11:00,73.9,71.7,29.92,WNW,290,0.0,0.0,93,0.00,,,0.04,VWS V14.00,2013-07-02 02:11:00,
2013-07-01 22:16:00,73.9,71.7,29.95,WNW,290,0.0,0.0,93,0.00,,,0.04,VWS V14.00,2013-07-02 02:16:00,
2013-07-01 22:21:00,73.9,71.3,29.95,WNW,290,0.0,0.0,91,0.00,,,0.04,VWS V14.00,2013-07-02 02:21:00,
2013-07-01 22:26:00,73.8,71.1,29.95,WNW,290,0.0,0.0,91,0.00,,,0.04,VWS V14.00,2013-07-02 02:26:00,
2013-07-01 22:31:00,73.8,71.1,29.95,WNW,290,0.0,0.0,91,0.00,,,0.04,VWS V14.00,2013-07-02 02:31:00,
2013-07-01 22:40:00,73.8,71.1,29.95,WNW,290,0.0,0.0,91,0.00,,,0.04,VWS V14.00,2013-07-02 02:40:00,
2013-07-01 22:45:00,73.8,71.6,29.95,WNW,290,0.0,0.0,93,0.00,,,0.04,VWS V14.00,2013-07-02 02:45:00,
2013-07-01 22:50:00,73.6,71.4,29.95,WNW,290,0.0,0.0,93,0.00,,,0.04,VWS V14.00,2013-07-02 02:50:00,
2013-07-01 22:55:00,73.6,71.8,29.95,WNW,290,0.0,0.0,94,0.00,,,0.04,VWS V14.00,2013-07-02 02:55:00,
2013-07-01 23:00:00,73.6,71.8,29.95,WNW,290,0.0,0.0,94,0.00,,,0.04,VWS V14.00,2013-07-02 03:00:00,
2013-07-01 23:05:00,73.6,72.3,29.95,WNW,290,0.0,0.0,96,0.00,,,0.04,VWS V14.00,2013-07-02 03:05:00,
2013-07-01 23:10:00,73.6,72.3,29.95,WNW,290,0.0,0.0,96,0.00,,,0.04,VWS V14.00,2013-07-02 03:10:00,
2013-07-01 23:15:00,73.4,72.1,29.95,WNW,290,0.0,0.0,96,0.00,,,0.04,VWS V14.00,2013-07-02 03:15:00,
2013-07-01 23:20:00,73.4,73.0,29.95,WNW,290,0.0,0.0,99,0.00,,,0.04,VWS V14.00,2013-07-02 03:20:00,
2013-07-01 23:25:00,73.4,73.0,29.95,WNW,290,0.0,0.0,99,0.00,,,0.04,VWS V14.00,2013-07-02 03:25:00,
2013-07-01 23:30:00,73.6,73.2,29.95,WNW,290,0.0,0.0,99,0.00,,,0.04,VWS V14.00,2013-07-02 03:30:00,
2013-07-01 23:35:00,73.6,73.2,29.95,WNW,290,0.0,0.0,99,0.00,,,0.04,VWS V14.00,2013-07-02 03:35:00,
2013-07-01 23:40:00,73.4,73.4,29.95,WNW,290,0.0,0.0,100,0.00,,,0.04,VWS V14.00,2013-07-02 03:40:00,
2013-07-01 23:50:00,73.4,73.4,29.95,WNW,290,0.0,0.0,100,0.00,,,0.04,VWS V14.00,2013-07-02 03:50:00,
2013-07-01 23:55:00,73.4,73.4,29.95,WNW,290,0.0,0.0,100,0.00,,,0.04,VWS V14.00,2013-07-02 03:55:00,